Time;durP1;ratioP1;P1;durP2;ratioP2;P2;SDS_P1;SDS_P2;PMS_P1;PMS_P2;Temp;Humidity;BMP_temperature;BMP_pressure;BME280_temperature;BME280_humidity;BME280_pressure;Samples;Min_cycle;Max_cycle;Signal;HPM_P1;HPM_P2
2022/01/19 00:00:57;;;;;;;;;;;2.50;99.90;;;;;;5077222;28;19955;-85
2022/01/19 00:03:23;;;;;;;;;;;2.40;99.90;;;;;;5076898;28;19919;-85
2022/01/19 00:05:49;;;;;;;;;;;2.40;99.90;;;;;;5076926;28;19957;-85
2022/01/19 00:08:18;;;;;;;;;;;2.40;99.90;;;;;;5078662;28;19908;-84
2022/01/19 00:10:44;;;;;;;;;;;2.40;99.90;;;;;;5078534;28;20300;-85
2022/01/19 00:13:09;;;;;;;;;;;2.30;99.90;;;;;;5077518;28;19915;-84
2022/01/19 00:15:35;;;;;;;;;;;2.20;99.90;;;;;;5077243;28;20378;-85
2022/01/19 00:18:01;;;;;;;;;;;2.20;99.90;;;;;;5077979;28;19909;-85
2022/01/19 00:20:27;;;;;;;;;;;2.40;99.90;;;;;;5077164;28;19912;-85
2022/01/19 00:22:53;;;;;;;;;;;2.60;99.90;;;;;;5078144;28;19912;-85
2022/01/19 00:25:19;;;;;;;;;;;2.50;99.90;;;;;;5080712;28;19930;-85
2022/01/19 00:27:45;;;;;;;;;;;2.40;99.90;;;;;;5098645;28;19908;-85
2022/01/19 00:30:10;;;;;;;;;;;2.40;99.90;;;;;;5079689;28;19908;-85
2022/01/19 00:32:36;;;;;;;;;;;2.30;99.90;;;;;;5080002;28;19912;-85
2022/01/19 00:35:05;;;;;;;;;;;2.30;99.90;;;;;;5079867;28;19909;-85
2022/01/19 00:37:31;;;;;;;;;;;2.40;99.90;;;;;;5079940;28;19908;-85
2022/01/19 00:39:56;;;;;;;;;;;2.40;99.90;;;;;;5079599;28;19912;-85
2022/01/19 00:42:22;;;;;;;;;;;2.20;99.90;;;;;;5079985;28;19916;-85
2022/01/19 00:44:47;;;;;;;;;;;2.10;99.90;;;;;;5080244;28;19912;-85
2022/01/19 00:47:14;;;;;;;;;;;2.10;99.90;;;;;;5079900;28;19908;-85
2022/01/19 00:49:42;;;;;;;;;;;2.10;99.90;;;;;;5098932;28;19987;-85
2022/01/19 00:52:08;;;;;;;;;;;2.10;99.90;;;;;;5080272;28;19908;-85
2022/01/19 00:54:33;;;;;;;;;;;2.10;99.90;;;;;;5080301;28;19909;-85
2022/01/19 00:56:59;;;;;;;;;;;2.20;99.90;;;;;;5080137;28;19915;-85
2022/01/19 00:59:24;;;;;;;;;;;2.10;99.90;;;;;;5097933;28;19908;-85
2022/01/19 01:01:50;;;;;;;;;;;2.20;99.90;;;;;;5079136;28;20264;-84
2022/01/19 01:04:16;;;;;;;;;;;2.20;99.90;;;;;;5080521;28;19908;-85
2022/01/19 01:06:41;;;;;;;;;;;2.10;99.90;;;;;;5079851;28;20287;-85
2022/01/19 01:09:07;;;;;;;;;;;2.10;99.90;;;;;;5079262;28;19915;-85
2022/01/19 01:11:36;;;;;;;;;;;2.10;99.90;;;;;;5078956;28;19916;-85
2022/01/19 01:16:33;;;;;;;;;;;2.10;99.90;;;;;;5097628;28;19908;-85
2022/01/19 01:18:59;;;;;;;;;;;2.00;99.90;;;;;;5079090;28;20014;-85
2022/01/19 01:21:25;;;;;;;;;;;2.00;99.90;;;;;;5078937;28;19912;-85
2022/01/19 01:23:50;;;;;;;;;;;1.80;99.90;;;;;;5079511;28;19912;-85
2022/01/19 01:26:16;;;;;;;;;;;1.80;99.90;;;;;;5079041;28;19915;-85
2022/01/19 01:28:42;;;;;;;;;;;1.70;99.90;;;;;;5097106;28;19908;-86
2022/01/19 01:31:09;;;;;;;;;;;1.50;99.90;;;;;;5079069;28;19931;-85
2022/01/19 01:33:38;;;;;;;;;;;1.60;99.90;;;;;;5096587;28;20384;-85
2022/01/19 01:36:04;;;;;;;;;;;1.60;99.90;;;;;;5078381;28;19916;-86
2022/01/19 01:38:29;;;;;;;;;;;1.80;99.90;;;;;;5078558;28;20233;-86
2022/01/19 01:40:55;;;;;;;;;;;1.90;99.90;;;;;;5078505;28;19943;-86
2022/01/19 01:43:21;;;;;;;;;;;1.80;99.90;;;;;;5079004;28;19912;-85
2022/01/19 01:45:50;;;;;;;;;;;1.80;99.90;;;;;;5079208;28;19957;-86
2022/01/19 01:48:19;;;;;;;;;;;1.90;99.90;;;;;;5079366;28;19995;-86
2022/01/19 01:53:30;;;;;;;;;;;1.90;99.90;;;;;;5098206;28;19915;-86
2022/01/19 01:56:10;;;;;;;;;;;1.90;99.90;;;;;;5079342;28;20276;-85
2022/01/19 01:58:37;;;;;;;;;;;1.90;99.90;;;;;;5078991;28;19912;-86
2022/01/19 02:01:03;;;;;;;;;;;1.80;99.90;;;;;;5096566;28;19916;-85
2022/01/19 02:03:36;;;;;;;;;;;1.80;99.90;;;;;;5078018;28;19947;-85
2022/01/19 02:08:36;;;;;;;;;;;1.70;99.90;;;;;;5096601;28;19999;-86
2022/01/19 02:21:45;;;;;;;;;;;1.30;99.90;;;;;;5103762;28;19934;-85
2022/01/19 02:24:14;;;;;;;;;;;1.20;99.90;;;;;;5082377;28;19915;-86
2022/01/19 02:40:18;;;;;;;;;;;1.40;99.90;;;;;;5096737;28;19962;-86
2022/01/19 02:50:37;;;;;;;;;;;1.10;99.90;;;;;;5097345;28;20263;-86
2022/01/19 02:53:03;;;;;;;;;;;1.20;99.90;;;;;;5078468;28;19912;-86
2022/01/19 02:55:34;;;;;;;;;;;1.40;99.90;;;;;;5096234;28;19908;-86
2022/01/19 02:57:59;;;;;;;;;;;1.70;99.90;;;;;;5077918;28;19908;-86
2022/01/19 03:08:45;;;;;;;;;;;1.50;99.90;;;;;;5096548;28;19959;-86
2022/01/19 03:11:18;;;;;;;;;;;1.60;99.90;;;;;;5077693;28;19908;-86
2022/01/19 03:13:44;;;;;;;;;;;1.60;99.90;;;;;;5077534;28;19908;-85
2022/01/19 03:16:10;;;;;;;;;;;1.40;99.90;;;;;;5076947;28;20356;-86
2022/01/19 03:18:36;;;;;;;;;;;1.20;99.90;;;;;;5076722;28;19926;-85
2022/01/19 03:21:01;;;;;;;;;;;1.00;99.90;;;;;;5076340;28;19912;-85
2022/01/19 03:23:27;;;;;;;;;;;0.90;99.90;;;;;;5076790;28;19919;-85
2022/01/19 03:25:54;;;;;;;;;;;0.90;99.90;;;;;;5076911;28;19957;-85
2022/01/19 03:28:20;;;;;;;;;;;0.90;99.90;;;;;;5076735;28;19923;-85
2022/01/19 03:30:47;;;;;;;;;;;1.00;99.90;;;;;;5076892;28;19908;-84
2022/01/19 03:33:12;;;;;;;;;;;1.20;99.90;;;;;;5077265;28;20276;-84
2022/01/19 03:35:38;;;;;;;;;;;1.30;99.90;;;;;;5077659;28;19915;-85
2022/01/19 03:38:05;;;;;;;;;;;1.40;99.90;;;;;;5095313;28;19915;-84
2022/01/19 03:40:30;;;;;;;;;;;1.50;99.90;;;;;;5076507;28;19920;-84
2022/01/19 03:42:56;;;;;;;;;;;1.50;99.90;;;;;;5076763;28;20017;-84
2022/01/19 03:45:22;;;;;;;;;;;1.30;99.90;;;;;;5077015;28;19959;-84
2022/01/19 03:48:06;;;;;;;;;;;1.20;99.90;;;;;;5076840;28;19995;-84
2022/01/19 03:50:32;;;;;;;;;;;1.10;99.90;;;;;;5094407;28;20287;-83
2022/01/19 03:53:00;;;;;;;;;;;1.00;99.90;;;;;;5076367;28;20020;-85
2022/01/19 03:55:26;;;;;;;;;;;0.90;99.90;;;;;;5094321;28;20014;-85
2022/01/19 03:57:51;;;;;;;;;;;1.10;99.90;;;;;;5079094;28;19912;-85
2022/01/19 04:00:19;;;;;;;;;;;1.20;99.90;;;;;;5080338;28;19909;-85
2022/01/19 04:02:44;;;;;;;;;;;1.20;99.90;;;;;;5080802;28;19908;-85
2022/01/19 04:05:20;;;;;;;;;;;1.10;99.90;;;;;;5080529;28;19941;-85
2022/01/19 04:07:45;;;;;;;;;;;1.30;99.90;;;;;;5080813;28;19919;-85
2022/01/19 04:10:11;;;;;;;;;;;1.00;99.90;;;;;;5080443;28;19908;-85
2022/01/19 04:12:47;;;;;;;;;;;0.80;99.90;;;;;;5080351;28;19912;-85
2022/01/19 04:15:13;;;;;;;;;;;0.70;99.90;;;;;;5080199;28;20354;-85
2022/01/19 04:17:45;;;;;;;;;;;0.60;99.90;;;;;;5080402;28;19955;-85
2022/01/19 04:20:11;;;;;;;;;;;0.70;99.90;;;;;;5081514;28;20264;-85
2022/01/19 04:22:36;;;;;;;;;;;0.90;99.90;;;;;;5098534;28;19927;-85
2022/01/19 04:25:02;;;;;;;;;;;1.10;99.90;;;;;;5080329;28;20015;-85
2022/01/19 04:30:02;;;;;;;;;;;0.60;99.90;;;;;;5098447;28;19951;-84
2022/01/19 04:32:43;;;;;;;;;;;0.60;99.90;;;;;;5081976;28;19912;-86
2022/01/19 04:35:10;;;;;;;;;;;0.70;99.90;;;;;;5082835;28;19912;-85
2022/01/19 04:37:49;;;;;;;;;;;0.60;99.90;;;;;;5080618;28;20287;-84
2022/01/19 05:02:42;;;;;;;;;;;1.10;99.90;;;;;;5036557;28;20043;-86
2022/01/19 05:13:25;;;;;;;;;;;0.70;99.90;;;;;;5097995;28;19915;-86
2022/01/19 05:15:35;;;;;;;;;;;0.90;99.90;;;;;;5098437;28;19915;-85
2022/01/19 05:18:02;;;;;;;;;;;1.00;99.90;;;;;;5098358;28;19908;-85
2022/01/19 05:20:27;;;;;;;;;;;1.20;99.90;;;;;;5080069;28;19912;-85
2022/01/19 05:22:53;;;;;;;;;;;1.20;99.90;;;;;;5080880;28;19919;-85
2022/01/19 05:25:18;;;;;;;;;;;1.10;99.90;;;;;;5080126;28;19951;-85
2022/01/19 05:27:44;;;;;;;;;;;1.20;99.90;;;;;;5080248;28;19915;-85
2022/01/19 05:30:10;;;;;;;;;;;1.20;99.90;;;;;;5079369;28;19912;-85
2022/01/19 05:32:36;;;;;;;;;;;1.30;99.90;;;;;;5079806;28;19900;-86
2022/01/19 05:35:01;;;;;;;;;;;1.40;99.90;;;;;;5098266;28;19909;-85
2022/01/19 05:37:27;;;;;;;;;;;1.40;99.90;;;;;;5078850;28;19947;-85
2022/01/19 05:39:52;;;;;;;;;;;1.50;99.90;;;;;;5079489;28;20316;-86
2022/01/19 05:42:18;;;;;;;;;;;1.60;99.90;;;;;;5079165;28;19916;-85
2022/01/19 05:44:45;;;;;;;;;;;1.70;99.90;;;;;;5079554;28;19915;-86
2022/01/19 05:47:11;;;;;;;;;;;1.50;99.90;;;;;;5097455;28;19925;-85
2022/01/19 05:49:37;;;;;;;;;;;1.50;99.90;;;;;;5079812;28;19951;-86
2022/01/19 05:52:03;;;;;;;;;;;1.50;99.90;;;;;;5097464;28;20367;-86
2022/01/19 05:54:29;;;;;;;;;;;1.70;99.90;;;;;;5079305;28;19915;-86
2022/01/19 05:56:54;;;;;;;;;;;1.70;99.90;;;;;;5097099;28;19909;-85
2022/01/19 05:59:22;;;;;;;;;;;1.70;99.90;;;;;;5079152;28;19912;-85
2022/01/19 06:01:47;;;;;;;;;;;1.50;99.90;;;;;;5097176;28;19958;-87
2022/01/19 06:04:13;;;;;;;;;;;1.50;99.90;;;;;;5078755;28;20322;-86
2022/01/19 06:06:39;;;;;;;;;;;1.60;99.90;;;;;;5079302;28;19892;-86
2022/01/19 06:09:10;;;;;;;;;;;1.70;99.90;;;;;;5079077;28;20356;-85
2022/01/19 06:11:36;;;;;;;;;;;1.70;99.90;;;;;;5078691;28;19912;-85
2022/01/19 06:14:02;;;;;;;;;;;1.70;99.90;;;;;;5096022;28;19909;-86
2022/01/19 06:16:28;;;;;;;;;;;1.70;99.90;;;;;;5078821;28;19908;-86
2022/01/19 06:18:53;;;;;;;;;;;1.60;99.90;;;;;;5078305;28;20379;-85
2022/01/19 06:21:19;;;;;;;;;;;1.60;99.90;;;;;;5095633;28;19928;-85
2022/01/19 06:23:44;;;;;;;;;;;1.50;99.90;;;;;;5078603;28;20018;-84
2022/01/19 06:26:10;;;;;;;;;;;1.40;99.90;;;;;;5096486;28;19908;-84
2022/01/19 06:28:35;;;;;;;;;;;1.20;99.90;;;;;;5096496;28;20398;-84
2022/01/19 06:31:01;;;;;;;;;;;1.10;99.90;;;;;;5078151;28;19915;-83
2022/01/19 06:33:26;;;;;;;;;;;1.00;99.90;;;;;;5077544;28;19909;-83
2022/01/19 06:35:53;;;;;;;;;;;0.80;99.90;;;;;;5077292;28;19908;-85
2022/01/19 06:38:18;;;;;;;;;;;1.00;99.90;;;;;;5077836;28;19909;-83
2022/01/19 06:40:44;;;;;;;;;;;1.00;99.90;;;;;;5080266;28;19924;-83
2022/01/19 06:43:10;;;;;;;;;;;1.10;99.90;;;;;;5082035;28;19915;-84
2022/01/19 06:45:35;;;;;;;;;;;1.00;99.90;;;;;;5078283;28;19912;-84
2022/01/19 06:48:01;;;;;;;;;;;0.90;99.90;;;;;;5078035;28;20351;-84
2022/01/19 06:50:28;;;;;;;;;;;1.00;99.90;;;;;;5095962;28;19915;-84
2022/01/19 06:52:53;;;;;;;;;;;1.00;99.90;;;;;;5078130;28;19912;-85
2022/01/19 06:55:19;;;;;;;;;;;0.90;99.90;;;;;;5077531;28;19908;-85
2022/01/19 06:57:45;;;;;;;;;;;1.00;99.90;;;;;;5095623;28;19948;-85
2022/01/19 07:00:12;;;;;;;;;;;1.20;99.90;;;;;;5095839;28;20364;-84
2022/01/19 07:02:37;;;;;;;;;;;1.40;99.90;;;;;;5096034;28;19908;-85
2022/01/19 07:05:04;;;;;;;;;;;1.40;99.90;;;;;;5096631;28;19919;-85
2022/01/19 07:07:30;;;;;;;;;;;1.40;99.90;;;;;;5077851;28;19915;-85
2022/01/19 07:09:55;;;;;;;;;;;1.50;99.90;;;;;;5077746;28;19908;-85
2022/01/19 07:12:21;;;;;;;;;;;1.50;99.90;;;;;;5078293;28;19915;-85
2022/01/19 07:14:47;;;;;;;;;;;1.50;99.90;;;;;;5077724;28;19957;-85
2022/01/19 07:17:13;;;;;;;;;;;1.50;99.90;;;;;;5077732;28;19912;-85
2022/01/19 07:19:38;;;;;;;;;;;1.50;99.90;;;;;;5076748;28;19908;-85
2022/01/19 07:22:04;;;;;;;;;;;1.50;99.90;;;;;;5077519;28;19957;-85
2022/01/19 07:24:30;;;;;;;;;;;1.30;99.90;;;;;;5095718;28;19992;-85
2022/01/19 07:26:55;;;;;;;;;;;1.40;99.90;;;;;;5078159;28;19909;-86
2022/01/19 07:29:21;;;;;;;;;;;1.30;99.90;;;;;;5078146;28;19908;-86
2022/01/19 07:31:46;;;;;;;;;;;1.30;99.90;;;;;;5076455;28;19908;-86
2022/01/19 07:34:12;;;;;;;;;;;1.30;99.90;;;;;;5075967;28;19939;-85
2022/01/19 07:36:38;;;;;;;;;;;1.40;99.90;;;;;;5076113;28;19908;-86
2022/01/19 07:39:04;;;;;;;;;;;1.40;99.90;;;;;;5094104;28;19919;-85
2022/01/19 07:41:29;;;;;;;;;;;1.40;99.90;;;;;;5075972;28;19943;-85
2022/01/19 07:43:57;;;;;;;;;;;1.50;99.90;;;;;;5076147;28;20464;-85
2022/01/19 07:46:22;;;;;;;;;;;1.50;99.90;;;;;;5076153;28;19896;-85
2022/01/19 07:48:48;;;;;;;;;;;1.60;99.90;;;;;;5076511;28;20371;-86
2022/01/19 07:51:13;;;;;;;;;;;1.70;99.90;;;;;;5075370;28;19908;-86
2022/01/19 07:53:39;;;;;;;;;;;1.70;99.90;;;;;;5076308;28;19930;-86
2022/01/19 07:56:05;;;;;;;;;;;1.90;99.90;;;;;;5076340;28;19947;-85
2022/01/19 07:58:31;;;;;;;;;;;2.10;99.90;;;;;;5076200;28;19912;-85
2022/01/19 08:00:56;;;;;;;;;;;2.30;99.90;;;;;;5094236;28;19912;-86
2022/01/19 08:03:22;;;;;;;;;;;2.40;99.90;;;;;;5094454;28;19908;-85
2022/01/19 08:05:48;;;;;;;;;;;2.60;99.90;;;;;;5076011;28;20408;-86
2022/01/19 08:08:13;;;;;;;;;;;2.80;99.90;;;;;;5075935;28;20367;-86
2022/01/19 08:10:42;;;;;;;;;;;2.90;99.90;;;;;;5076100;28;19915;-86
2022/01/19 08:13:07;;;;;;;;;;;3.00;99.90;;;;;;5075964;28;19908;-86
2022/01/19 08:15:33;;;;;;;;;;;3.10;99.90;;;;;;5075640;28;19927;-85
2022/01/19 08:17:59;;;;;;;;;;;3.30;99.90;;;;;;5075935;28;19908;-86
2022/01/19 08:20:24;;;;;;;;;;;3.40;99.90;;;;;;5093870;28;19908;-86
2022/01/19 08:22:50;;;;;;;;;;;3.50;99.90;;;;;;5075973;28;19908;-86
2022/01/19 08:25:16;;;;;;;;;;;3.50;99.90;;;;;;5074903;28;20438;-86
2022/01/19 08:27:41;;;;;;;;;;;3.60;99.90;;;;;;5075648;28;19912;-86
2022/01/19 08:30:08;;;;;;;;;;;3.40;99.90;;;;;;5075611;28;19908;-87
2022/01/19 08:32:36;;;;;;;;;;;3.40;99.90;;;;;;5075688;28;19959;-86
2022/01/19 08:35:03;;;;;;;;;;;3.60;99.90;;;;;;5075649;28;19908;-86
2022/01/19 08:37:28;;;;;;;;;;;3.70;99.90;;;;;;5076445;28;20401;-86
2022/01/19 08:39:54;;;;;;;;;;;3.90;99.90;;;;;;5075516;28;19921;-86
2022/01/19 08:42:20;;;;;;;;;;;4.00;99.90;;;;;;5075872;28;20364;-87
2022/01/19 08:44:46;;;;;;;;;;;4.00;99.90;;;;;;5078222;28;20329;-86
2022/01/19 08:47:11;;;;;;;;;;;4.10;99.90;;;;;;5079804;28;19908;-87
2022/01/19 08:49:37;;;;;;;;;;;4.10;99.90;;;;;;5080307;28;20350;-88
2022/01/19 08:52:03;;;;;;;;;;;4.20;99.90;;;;;;5086956;28;19916;-87
2022/01/19 08:54:29;;;;;;;;;;;4.20;99.90;;;;;;5098389;28;19915;-86
2022/01/19 08:56:54;;;;;;;;;;;4.20;99.90;;;;;;5092109;28;19908;-86
2022/01/19 08:59:20;;;;;;;;;;;4.40;99.90;;;;;;5079724;28;19909;-85
2022/01/19 09:01:46;;;;;;;;;;;4.50;99.90;;;;;;5080286;28;19912;-85
2022/01/19 09:04:11;;;;;;;;;;;4.60;99.90;;;;;;5079324;28;19973;-86
2022/01/19 09:06:37;;;;;;;;;;;4.60;99.90;;;;;;5078711;28;19914;-85
2022/01/19 09:09:03;;;;;;;;;;;4.70;99.90;;;;;;5078147;28;20388;-86
2022/01/19 09:11:28;;;;;;;;;;;4.90;99.90;;;;;;5078053;28;19916;-86
2022/01/19 09:13:54;;;;;;;;;;;4.90;99.90;;;;;;5078306;28;20368;-84
2022/01/19 09:16:19;;;;;;;;;;;5.10;99.90;;;;;;5078523;28;20433;-87
2022/01/19 09:18:45;;;;;;;;;;;5.20;99.90;;;;;;5096484;28;19909;-87
2022/01/19 09:21:11;;;;;;;;;;;5.20;99.90;;;;;;5078627;28;19918;-85
2022/01/19 09:23:37;;;;;;;;;;;4.90;99.90;;;;;;5078323;28;19912;-84
2022/01/19 09:26:03;;;;;;;;;;;4.90;99.90;;;;;;5078145;28;19908;-84
2022/01/19 09:28:29;;;;;;;;;;;5.40;99.90;;;;;;5078214;28;19915;-84
2022/01/19 09:30:57;;;;;;;;;;;5.60;99.90;;;;;;5077671;28;19931;-86
2022/01/19 09:33:24;;;;;;;;;;;5.60;99.90;;;;;;5078458;28;19908;-85
2022/01/19 09:38:17;;;;;;;;;;;5.80;99.90;;;;;;5096796;28;20340;-85
2022/01/19 09:40:43;;;;;;;;;;;5.90;99.90;;;;;;5074419;28;19981;-85
2022/01/19 09:43:09;;;;;;;;;;;6.20;99.90;;;;;;5074646;28;19912;-85
2022/01/19 09:45:35;;;;;;;;;;;6.30;99.90;;;;;;5074904;28;20322;-85
2022/01/19 09:48:00;;;;;;;;;;;6.30;99.90;;;;;;5074824;28;19908;-84
2022/01/19 09:50:26;;;;;;;;;;;6.30;99.90;;;;;;5075091;28;19954;-82
2022/01/19 09:52:52;;;;;;;;;;;6.50;99.90;;;;;;5076222;28;19909;-85
2022/01/19 09:55:17;;;;;;;;;;;6.50;99.90;;;;;;5074337;28;19908;-85
2022/01/19 09:57:43;;;;;;;;;;;6.50;99.90;;;;;;5074580;28;19913;-85
2022/01/19 10:00:09;;;;;;;;;;;6.50;99.90;;;;;;5074222;28;19927;-85
2022/01/19 10:02:34;;;;;;;;;;;6.50;99.90;;;;;;5074110;28;20011;-84
2022/01/19 10:05:05;;;;;;;;;;;6.70;99.90;;;;;;5075034;28;19987;-84
2022/01/19 10:07:30;;;;;;;;;;;6.60;99.90;;;;;;5073540;28;19916;-84
2022/01/19 10:09:59;;;;;;;;;;;6.50;99.90;;;;;;5074196;28;19921;-84
2022/01/19 10:18:09;;;;;;;;;;;7.30;99.90;;;;;;5075082;28;19915;-84
2022/01/19 10:20:35;;;;;;;;;;;7.60;99.90;;;;;;5073447;28;19970;-84
2022/01/19 10:23:00;;;;;;;;;;;7.70;99.90;;;;;;5073956;28;19909;-85
2022/01/19 10:25:45;;;;;;;;;;;7.70;99.90;;;;;;5075417;28;19908;-84
2022/01/19 10:28:11;;;;;;;;;;;8.00;99.90;;;;;;5075179;28;19971;-84
2022/01/19 10:30:36;;;;;;;;;;;8.00;99.90;;;;;;5073920;28;19916;-84
2022/01/19 10:33:02;;;;;;;;;;;8.30;99.90;;;;;;5073650;28;19908;-84
2022/01/19 10:35:29;;;;;;;;;;;8.20;99.90;;;;;;5073335;28;19909;-84
2022/01/19 10:38:09;;;;;;;;;;;8.20;99.90;;;;;;5056537;28;19915;-84
2022/01/19 10:40:36;;;;;;;;;;;8.30;99.90;;;;;;5055966;28;19920;-84
2022/01/19 10:43:20;;;;;;;;;;;8.50;99.90;;;;;;5055887;28;19915;-84
2022/01/19 10:45:45;;;;;;;;;;;8.10;99.90;;;;;;5056424;28;19915;-84
2022/01/19 10:48:11;;;;;;;;;;;7.50;99.90;;;;;;5055931;28;20380;-84
2022/01/19 10:50:36;;;;;;;;;;;7.90;99.90;;;;;;5055827;28;19917;-84
2022/01/19 10:53:03;;;;;;;;;;;8.40;99.90;;;;;;5056070;28;19908;-85
2022/01/19 10:55:31;;;;;;;;;;;7.90;99.90;;;;;;5055915;28;19909;-84
2022/01/19 10:57:57;;;;;;;;;;;8.20;99.90;;;;;;5055985;28;20011;-84
2022/01/19 11:00:24;;;;;;;;;;;8.80;99.90;;;;;;5055839;28;20340;-84
2022/01/19 11:02:52;;;;;;;;;;;9.10;99.90;;;;;;5055834;28;19908;-84
2022/01/19 11:05:37;;;;;;;;;;;9.10;99.90;;;;;;5062715;28;19908;-83
2022/01/19 11:08:03;;;;;;;;;;;9.20;99.90;;;;;;5083669;28;19908;-83
2022/01/19 11:10:31;;;;;;;;;;;9.40;99.90;;;;;;5075491;28;20314;-84
2022/01/19 11:12:56;;;;;;;;;;;9.90;99.90;;;;;;5073842;28;19908;-83
2022/01/19 11:15:22;;;;;;;;;;;10.40;99.90;;;;;;5073374;28;20360;-84
2022/01/19 11:17:48;;;;;;;;;;;10.10;99.90;;;;;;5073238;28;19935;-83
2022/01/19 11:20:16;;;;;;;;;;;10.20;99.90;;;;;;5074418;28;19919;-84
2022/01/19 11:22:59;;;;;;;;;;;10.60;99.90;;;;;;5073002;28;20287;-85
2022/01/19 11:25:25;;;;;;;;;;;10.70;99.90;;;;;;5073265;28;19909;-85
2022/01/19 11:27:51;;;;;;;;;;;10.50;99.90;;;;;;5072997;28;20386;-85
2022/01/19 11:30:24;;;;;;;;;;;10.90;99.90;;;;;;5072471;28;19909;-84
2022/01/19 11:33:25;;;;;;;;;;;10.80;99.90;;;;;;5072595;28;20261;-84
2022/01/19 11:35:55;;;;;;;;;;;11.00;99.90;;;;;;4976246;28;19941;-84
2022/01/19 11:38:36;;;;;;;;;;;10.40;99.90;;;;;;5059091;28;19962;-83
2022/01/19 11:41:07;;;;;;;;;;;10.60;99.90;;;;;;5072497;28;19928;-84
2022/01/19 11:43:34;;;;;;;;;;;10.50;99.90;;;;;;5072587;28;19908;-84
2022/01/19 11:46:03;;;;;;;;;;;10.70;99.90;;;;;;5072462;28;19916;-83
2022/01/19 11:48:31;;;;;;;;;;;11.00;99.90;;;;;;5072146;28;19917;-84
2022/01/19 11:51:16;;;;;;;;;;;10.50;99.90;;;;;;5074228;28;19912;-83
2022/01/19 11:54:00;;;;;;;;;;;10.80;99.90;;;;;;5073593;28;19951;-84
2022/01/19 11:56:26;;;;;;;;;;;10.90;99.90;;;;;;5073631;28;19908;-83
2022/01/19 11:59:08;;;;;;;;;;;10.80;99.90;;;;;;5072357;28;20008;-84
2022/01/19 12:01:34;;;;;;;;;;;11.50;99.90;;;;;;5072277;28;19917;-84
2022/01/19 12:04:14;;;;;;;;;;;12.20;99.90;;;;;;5072581;28;20261;-83
2022/01/19 12:06:42;;;;;;;;;;;12.50;99.90;;;;;;5072009;28;19909;-81
2022/01/19 12:09:09;;;;;;;;;;;13.10;99.90;;;;;;5072139;28;20294;-83
2022/01/19 12:11:36;;;;;;;;;;;13.40;99.90;;;;;;5073780;28;19908;-81
2022/01/19 12:14:20;;;;;;;;;;;13.70;99.90;;;;;;5071959;28;19996;-82
2022/01/19 12:17:04;;;;;;;;;;;13.10;99.90;;;;;;5072303;28;19916;-83
2022/01/19 12:19:35;;;;;;;;;;;13.00;99.90;;;;;;5075917;28;19908;-83
2022/01/19 12:22:05;;;;;;;;;;;13.30;99.90;;;;;;5076231;28;19981;-82
2022/01/19 12:24:34;;;;;;;;;;;14.00;99.90;;;;;;5075930;28;19914;-82
2022/01/19 12:27:00;;;;;;;;;;;;;;;;;;5077236;28;20357;-83
2022/01/19 12:29:38;;;;;;;;;;;13.90;99.90;;;;;;5077015;28;19959;-82
2022/01/19 12:32:03;;;;;;;;;;;13.70;99.90;;;;;;5075886;28;20019;-83
2022/01/19 12:34:43;;;;;;;;;;;13.70;99.90;;;;;;5075370;28;20367;-83
2022/01/19 12:37:09;;;;;;;;;;;14.10;99.90;;;;;;5075331;28;19909;-83
2022/01/19 12:39:44;;;;;;;;;;;14.70;99.80;;;;;;5077417;28;19955;-83
2022/01/19 12:42:17;;;;;;;;;;;15.30;98.60;;;;;;5078700;28;19919;-84
2022/01/19 12:44:47;;;;;;;;;;;15.70;97.10;;;;;;5078509;28;20425;-83
2022/01/19 12:47:25;;;;;;;;;;;16.20;96.40;;;;;;5078709;28;19908;-84
2022/01/19 12:49:51;;;;;;;;;;;16.20;95.70;;;;;;5096734;28;19954;-82
2022/01/19 12:52:18;;;;;;;;;;;16.00;94.80;;;;;;5097026;28;19908;-84
2022/01/19 12:54:43;;;;;;;;;;;14.90;96.30;;;;;;5078703;28;19914;-84
2022/01/19 12:57:15;;;;;;;;;;;15.60;96.00;;;;;;5096962;28;19908;-84
2022/01/19 12:59:41;;;;;;;;;;;16.20;94.20;;;;;;5078814;28;19995;-84
2022/01/19 13:02:06;;;;;;;;;;;16.60;93.30;;;;;;5078458;28;20352;-84
2022/01/19 13:04:33;;;;;;;;;;;16.80;92.70;;;;;;5096712;28;19981;-84
2022/01/19 13:07:20;;;;;;;;;;;16.10;93.10;;;;;;5096432;28;20256;-83
2022/01/19 13:10:01;;;;;;;;;;;15.70;92.30;;;;;;5078191;28;19908;-83
2022/01/19 13:12:43;;;;;;;;;;;15.70;93.10;;;;;;5078246;28;20011;-82
2022/01/19 13:15:08;;;;;;;;;;;15.00;92.40;;;;;;5078329;28;19909;-82
2022/01/19 13:17:47;;;;;;;;;;;13.50;93.30;;;;;;5080707;28;19977;-83
2022/01/19 13:20:16;;;;;;;;;;;11.80;95.70;;;;;;5081551;28;20316;-84
2022/01/19 13:22:44;;;;;;;;;;;10.60;98.40;;;;;;5096296;28;19941;-82
2022/01/19 13:25:14;;;;;;;;;;;10.70;99.20;;;;;;5078327;28;20046;-83
2022/01/19 13:27:44;;;;;;;;;;;10.80;98.90;;;;;;5078193;28;19908;-82
2022/01/19 13:30:13;;;;;;;;;;;9.50;99.90;;;;;;5077400;28;20324;-83
2022/01/19 13:32:39;;;;;;;;;;;8.80;99.90;;;;;;5077777;28;19908;-83
2022/01/19 13:35:07;;;;;;;;;;;8.30;99.90;;;;;;5096149;28;20256;-82
2022/01/19 13:37:35;;;;;;;;;;;8.10;99.90;;;;;;5078569;28;19908;-83
2022/01/19 13:40:03;;;;;;;;;;;7.60;99.90;;;;;;5077386;28;19916;-83
2022/01/19 13:42:37;;;;;;;;;;;7.20;99.90;;;;;;5095774;28;19958;-83
2022/01/19 13:45:09;;;;;;;;;;;6.80;99.90;;;;;;5077686;28;19950;-82
2022/01/19 13:51:02;;;;;;;;;;;6.20;99.90;;;;;;4994724;28;20016;-83
2022/01/19 13:53:29;;;;;;;;;;;6.10;99.90;;;;;;4989225;28;19917;-81
2022/01/19 13:55:56;;;;;;;;;;;5.90;99.90;;;;;;4977718;28;19917;-82
2022/01/19 13:58:21;;;;;;;;;;;5.80;99.90;;;;;;4977534;28;20321;-82
2022/01/19 14:00:50;;;;;;;;;;;6.00;99.90;;;;;;4977463;28;20024;-82
2022/01/19 14:03:16;;;;;;;;;;;6.20;99.90;;;;;;4978028;28;19917;-82
2022/01/19 14:05:43;;;;;;;;;;;7.50;99.90;;;;;;4994202;28;19910;-81
2022/01/19 14:08:09;;;;;;;;;;;8.70;99.90;;;;;;4977780;28;19972;-82
2022/01/19 14:10:52;;;;;;;;;;;8.80;99.90;;;;;;4994066;28;20414;-82
2022/01/19 14:13:29;;;;;;;;;;;8.80;99.90;;;;;;4977452;28;19910;-83
2022/01/19 14:15:55;;;;;;;;;;;8.50;99.90;;;;;;4977502;28;20309;-80
2022/01/19 14:18:21;;;;;;;;;;;7.70;99.90;;;;;;4993360;28;19914;-81
2022/01/19 14:21:06;;;;;;;;;;;7.30;99.90;;;;;;5002260;28;20003;-82
2022/01/19 14:23:31;;;;;;;;;;;6.80;99.90;;;;;;5076629;28;20381;-82
2022/01/19 14:26:11;;;;;;;;;;;6.60;99.90;;;;;;5076580;28;19987;-82
2022/01/19 14:28:38;;;;;;;;;;;6.20;99.90;;;;;;5076574;28;19912;-82
2022/01/19 14:31:06;;;;;;;;;;;5.90;99.90;;;;;;5076544;28;19915;-82
2022/01/19 14:33:32;;;;;;;;;;;5.60;99.90;;;;;;5076532;28;19916;-82
2022/01/19 14:35:59;;;;;;;;;;;5.50;99.90;;;;;;5076758;28;19908;-82
2022/01/19 14:38:32;;;;;;;;;;;5.30;99.90;;;;;;5076773;28;19934;-82
2022/01/19 14:41:00;;;;;;;;;;;5.20;99.90;;;;;;5094195;28;19926;-82
2022/01/19 14:43:37;;;;;;;;;;;5.10;99.90;;;;;;5076389;28;19908;-82
2022/01/19 14:46:10;;;;;;;;;;;5.10;99.90;;;;;;5094836;28;19908;-81
2022/01/19 14:48:39;;;;;;;;;;;5.00;99.90;;;;;;5095146;28;19948;-78
2022/01/19 14:51:24;;;;;;;;;;;4.80;99.90;;;;;;5076304;28;19912;-82
2022/01/19 14:54:11;;;;;;;;;;;4.80;99.90;;;;;;5076314;28;20290;-81
2022/01/19 14:56:38;;;;;;;;;;;4.70;99.90;;;;;;5076112;28;19912;-81
2022/01/19 14:59:03;;;;;;;;;;;4.60;99.90;;;;;;5076358;28;19979;-82
2022/01/19 15:01:30;;;;;;;;;;;4.60;99.90;;;;;;5076005;28;20003;-82
2022/01/19 15:03:55;;;;;;;;;;;4.50;99.90;;;;;;5094089;28;19908;-82
2022/01/19 15:06:21;;;;;;;;;;;4.50;99.90;;;;;;5094243;28;19977;-83
2022/01/19 15:08:47;;;;;;;;;;;4.60;99.90;;;;;;5076003;28;20028;-81
2022/01/19 15:11:15;;;;;;;;;;;4.50;99.90;;;;;;5076158;28;19934;-81
2022/01/19 15:13:41;;;;;;;;;;;4.50;99.90;;;;;;5093867;28;19977;-81
2022/01/19 15:16:07;;;;;;;;;;;4.50;99.90;;;;;;5075660;28;19912;-83
2022/01/19 15:18:32;;;;;;;;;;;4.50;99.90;;;;;;5093838;28;19954;-82
2022/01/19 15:20:58;;;;;;;;;;;4.50;99.90;;;;;;5075586;28;19961;-83
2022/01/19 15:23:23;;;;;;;;;;;4.50;99.90;;;;;;5093734;28;20264;-81
2022/01/19 15:25:49;;;;;;;;;;;4.50;99.90;;;;;;5075609;28;20049;-81
2022/01/19 15:28:15;;;;;;;;;;;4.40;99.90;;;;;;5076254;28;19915;-82
2022/01/19 15:30:43;;;;;;;;;;;4.50;99.90;;;;;;5076308;28;19909;-82
2022/01/19 15:33:09;;;;;;;;;;;4.40;99.90;;;;;;5076063;28;19908;-83
2022/01/19 15:35:37;;;;;;;;;;;4.40;99.90;;;;;;5094149;28;19998;-80
2022/01/19 15:38:03;;;;;;;;;;;4.40;99.90;;;;;;5075439;28;19908;-80
2022/01/19 15:40:29;;;;;;;;;;;4.40;99.90;;;;;;5094061;28;19950;-83
2022/01/19 15:42:56;;;;;;;;;;;4.30;99.90;;;;;;5094158;28;19912;-82
2022/01/19 15:45:21;;;;;;;;;;;4.30;99.90;;;;;;5075960;28;19920;-81
2022/01/19 15:47:47;;;;;;;;;;;4.30;99.90;;;;;;5075629;28;19912;-81
2022/01/19 15:50:13;;;;;;;;;;;4.20;99.90;;;;;;5093451;28;19908;-81
2022/01/19 15:52:39;;;;;;;;;;;4.20;99.90;;;;;;5075080;28;20420;-82
2022/01/19 15:55:05;;;;;;;;;;;4.20;99.90;;;;;;5075262;28;20359;-83
2022/01/19 15:57:31;;;;;;;;;;;4.20;99.90;;;;;;5093341;28;19951;-83
2022/01/19 15:59:58;;;;;;;;;;;4.20;99.90;;;;;;5075835;28;19934;-83
2022/01/19 16:02:24;;;;;;;;;;;4.20;99.90;;;;;;5075208;28;20439;-82
2022/01/19 16:04:50;;;;;;;;;;;4.10;99.90;;;;;;5075689;28;19908;-82